Latest Weather Observations for Port Macquarie Airport

IDN60801

Issued at 10:32 pm EST Sunday 5 July 2015 (issued every 30 minutes, with the page automatically refreshed every 10 minutes)

About weather observations | Map of weather stations | Latest weather observations for NSW | Other Formats
Station Details ID: 060139 Name: PORT MACQUARIE AIRPORT AWS Lat: -31.43 Lon: 152.87 Height: 4.2 m
Data from the previous 72 hours. | See also: Recent months at Port Macquarie Airport
Date/Time
EST
Temp
°C
App
Temp
°C
Dew
Point
Rel
Hum
%
Delta-T
°C
Wind Press
QNH
hPa
Press
MSL
hPa
Rain
since 9 am
mm
Dir
 
Spd
km/h
Gust
km/h
Spd
kts
Gust
kts
05/10:30pm 6.9 6.0 6.2 95 0.3 CALM 0 6 0 3 1019.4 1019.4 0.0
05/10:00pm 6.0 4.9 5.1 94 0.4 CALM 0 0 0 0 1019.5 1019.5 0.0
05/09:30pm 6.1 5.0 5.1 93 0.4 CALM 0 0 0 0 1019.7 1019.7 0.0
05/09:00pm 6.5 5.5 5.8 95 0.3 CALM 0 0 0 0 1019.8 1019.8 0.0
05/08:30pm 7.0 6.1 5.9 93 0.5 CALM 0 0 0 0 1020.0 1020.0 0.0
05/08:00pm 7.1 6.2 6.0 93 0.5 CALM 0 0 0 0 1020.1 1020.1 0.0
05/07:30pm 7.8 7.0 6.6 92 0.6 CALM 0 0 0 0 1020.1 1020.1 0.0
05/07:00pm 8.0 7.2 6.3 89 0.8 CALM 0 0 0 0 1019.7 1019.7 0.0
05/06:30pm 8.5 7.7 6.3 86 1.0 CALM 0 0 0 0 1019.6 1019.6 0.0
05/06:00pm 9.6 9.0 7.2 85 1.1 CALM 0 0 0 0 1019.6 1019.6 0.0
05/05:30pm 10.8 9.5 7.7 81 1.5 WNW 4 7 2 4 1019.4 1019.4 0.0
05/05:00pm 12.8 12.4 8.1 73 2.3 CALM 0 0 0 0 1019.0 1019.0 0.0
05/04:30pm 16.3 14.5 7.8 57 4.3 NNE 7 11 4 6 1018.8 1018.8 0.0
05/04:00pm 16.9 14.5 7.0 52 4.9 NE 9 13 5 7 1018.8 1018.8 0.0
05/03:30pm 17.3 14.3 5.9 47 5.5 ENE 11 15 6 8 1018.8 1018.8 0.0
05/03:00pm 17.9 15.2 5.5 44 6.0 ENE 9 13 5 7 1018.9 1018.9 0.0
05/02:30pm 18.5 16.3 6.4 45 6.0 N 7 11 4 6 1019.1 1019.1 0.0
05/02:00pm 18.3 15.8 4.8 41 6.5 NE 7 11 4 6 1019.2 1019.2 0.0
05/01:30pm 18.4 16.9 4.9 41 6.5 N 2 6 1 3 1019.4 1019.4 0.0
05/01:00pm 18.4 16.1 5.9 44 6.1 N 7 11 4 6 1019.8 1019.8 0.0
05/12:30pm 17.4 15.3 4.0 41 6.3 WNW 4 9 2 5 1020.3 1020.3 0.0
05/12:00pm 16.8 14.1 2.4 38 6.5 SSE 6 9 3 5 1020.7 1020.7 0.0
05/11:30am 17.0 13.7 2.2 37 6.7 SSE 9 15 5 8 1021.0 1021.0 0.0
05/11:00am 15.5 13.3 6.2 54 4.5 WSW 7 13 4 7 1021.5 1021.5 0.0
05/10:30am 14.6 12.9 7.6 63 3.5 NW 6 9 3 5 1021.8 1021.8 0.0
05/10:00am 13.7 11.7 7.0 64 3.2 NW 7 11 4 6 1022.0 1022.0 0.0
05/09:30am 12.4 10.5 6.5 67 2.8 W 6 9 3 5 1022.3 1022.3 0.0
05/09:00am 11.2 8.9 5.7 69 2.5 W 7 11 4 6 1022.2 1022.2 0.0
05/08:30am 9.9 7.6 5.7 75 1.9 W 7 9 4 5 1022.2 1022.2 0.0
05/08:00am 8.3 5.9 5.4 82 1.3 WSW 7 11 4 6 1022.2 1022.2 0.0
05/07:30am 6.6 4.6 4.6 87 0.9 W 4 9 2 5 1022.0 1022.0 0.0
05/07:00am 5.9 4.3 4.5 91 0.6 WNW 2 7 1 4 1021.7 1021.7 0.0
05/06:30am 5.9 3.4 3.9 87 0.8 W 6 9 3 5 1021.6 1021.6 0.0
05/06:00am 7.1 5.0 3.9 80 1.4 W 4 7 2 4 1021.3 1021.3 0.0
05/05:30am 7.0 5.7 4.1 82 1.2 CALM 0 0 0 0 1021.3 1021.3 0.0
05/05:00am 7.6 5.1 4.0 78 1.5 W 6 7 3 4 1021.2 1021.2 0.0
05/04:30am 7.5 5.1 4.1 79 1.5 W 6 11 3 6 1021.3 1021.3 0.0
05/04:00am 8.0 5.6 4.4 78 1.6 W 6 9 3 5 1021.0 1021.0 0.0
05/03:30am 8.3 6.3 4.5 77 1.7 WSW 4 7 2 4 1021.0 1021.0 0.0
05/03:00am 8.4 6.3 4.0 74 1.9 WNW 4 7 2 4 1021.0 1021.0 0.0
05/02:30am 9.0 6.5 4.6 74 1.9 W 7 15 4 8 1021.1 1021.1 0.0
05/02:00am 8.9 7.3 4.3 73 2.0 SW 2 9 1 5 1021.1 1021.1 0.0
05/01:30am 10.0 6.8 5.0 71 2.3 WNW 11 17 6 9 1021.2 1021.2 0.0
05/01:00am 10.3 7.9 5.1 70 2.3 W 7 9 4 5 1021.0 1021.0 0.0
05/12:30am 10.6 7.9 5.4 70 2.4 W 9 15 5 8 1020.8 1020.8 0.0
05/12:00am 10.5 7.4 5.5 71 2.3 WNW 11 15 6 8 1021.2 1021.2 0.0
 
Date/Time
EST
Temp
°C
App
Temp
°C
Dew
Point
Rel
Hum
%
Delta-T
°C
Wind Press
QNH
hPa
Press
MSL
hPa
Rain
since 9 am
mm
Dir
 
Spd
km/h
Gust
km/h
Spd
kts
Gust
kts
04/11:30pm 10.6 6.8 5.8 72 2.2 W 15 22 8 12 1021.3 1021.3 0.0
04/11:00pm 10.4 7.1 6.2 75 1.9 WNW 13 20 7 11 1021.5 1021.5 0.0
04/10:30pm 9.7 5.8 7.1 84 1.2 WNW 17 26 9 14 1021.4 1021.4 0.0
04/10:00pm 7.0 5.3 6.1 94 0.4 WNW 4 6 2 3 1021.5 1021.5 0.0
04/09:30pm 6.7 4.6 5.8 94 0.4 SSW 6 7 3 4 1021.5 1021.5 0.0
04/09:00pm 7.4 6.2 6.3 93 0.5 SW 2 6 1 3 1021.6 1021.6 0.0
04/08:30pm 7.5 6.3 6.3 92 0.5 WSW 2 6 1 3 1021.6 1021.6 0.0
04/08:00pm 8.7 8.1 7.6 93 0.5 CALM 0 0 0 0 1021.4 1021.4 0.0
04/07:30pm 9.0 8.4 7.5 90 0.7 CALM 0 0 0 0 1021.3 1021.3 0.0
04/07:00pm 9.5 9.0 7.8 89 0.8 CALM 0 0 0 0 1021.2 1021.2 0.0
04/06:30pm 10.4 10.0 8.3 87 1.0 CALM 0 0 0 0 1020.9 1020.9 0.0
04/06:00pm 10.7 9.1 8.1 84 1.3 SW 6 7 3 4 1020.5 1020.5 0.0
04/05:30pm 12.5 12.3 9.1 80 1.7 CALM 0 0 0 0 1020.0 1020.0 0.0
04/05:00pm 14.7 14.6 9.5 71 2.7 CALM 0 0 0 0 1019.8 1019.8 0.0
04/04:30pm 18.0 16.5 8.3 53 5.0 NE 6 9 3 5 1019.6 1019.6 0.0
04/04:00pm 18.9 17.2 8.3 50 5.5 ENE 7 11 4 6 1019.6 1019.6 0.0
04/03:30pm 19.3 17.5 8.0 48 5.8 NE 7 11 4 6 1019.4 1019.4 0.0
04/03:00pm 19.1 18.3 8.1 49 5.6 ENE 2 6 1 3 1019.4 1019.4 0.0
04/02:30pm 18.8 17.2 7.9 49 5.6 NW 6 7 3 4 1019.5 1019.5 0.0
04/02:00pm 19.0 17.2 7.8 48 5.7 N 7 13 4 7 1019.4 1019.4 0.0
04/01:30pm 19.7 17.9 8.1 47 6.0 WNW 7 15 4 8 1019.7 1019.7 0.0
04/01:00pm 19.2 16.7 8.2 49 5.7 NNE 11 13 6 7 1020.2 1020.2 0.0
04/12:30pm 19.1 16.3 8.4 50 5.5 NNW 13 28 7 15 1020.7 1020.7 0.0
04/12:00pm 19.0 16.2 8.4 50 5.5 N 13 19 7 10 1021.2 1021.2 0.0
04/11:30am 18.6 16.6 10.2 58 4.5 N 11 17 6 9 1022.0 1022.0 0.0
04/11:00am 16.9 14.9 10.3 65 3.5 NNW 11 19 6 10 1022.4 1022.4 0.0
04/10:30am 16.4 14.6 9.6 64 3.5 NW 9 15 5 8 1023.0 1023.0 0.0
04/10:00am 15.1 12.8 9.0 67 3.1 NW 11 15 6 8 1023.4 1023.4 0.0
04/09:30am 13.8 11.8 8.6 71 2.6 WNW 9 13 5 7 1023.7 1023.7 0.0
04/09:00am 13.2 10.8 8.7 74 2.2 W 11 15 6 8 1024.0 1024.0 0.0
04/08:30am 12.8 10.9 8.9 77 2.0 WNW 9 13 5 7 1023.8 1023.8 0.0
04/08:00am 11.6 10.1 8.6 82 1.5 NW 6 9 3 5 1023.6 1023.6 0.0
04/07:30am 10.9 10.6 8.7 86 1.1 CALM 0 0 0 0 1023.8 1023.8 0.0
04/07:00am 10.5 9.6 7.6 82 1.4 W 2 7 1 4 1023.6 1023.6 0.0
04/06:30am 10.9 9.1 8.1 83 1.4 W 7 13 4 7 1023.6 1023.6 0.0
04/06:00am 10.5 8.0 8.1 85 1.2 WNW 11 15 6 8 1023.3 1023.3 0.0
04/05:30am 10.5 8.7 7.9 84 1.3 WNW 7 11 4 6 1022.9 1022.9 0.0
04/05:00am 10.7 8.5 7.9 83 1.3 W 9 11 5 6 1022.8 1022.8 0.0
04/04:30am 10.3 9.8 7.9 85 1.2 CALM 0 6 0 3 1022.7 1022.7 0.0
04/04:00am 10.3 9.3 7.4 82 1.4 WSW 2 7 1 4 1022.8 1022.8 0.0
04/03:30am 10.7 8.9 7.0 78 1.8 WSW 6 7 3 4 1023.1 1023.1 0.0
04/03:00am 11.8 9.6 7.7 76 2.0 W 9 13 5 7 1023.2 1023.2 0.0
04/02:30am 12.0 9.0 7.7 75 2.1 W 13 17 7 9 1023.5 1023.5 0.0
04/02:00am 12.0 9.3 7.5 74 2.2 W 11 15 6 8 1023.9 1023.9 0.0
04/01:30am 12.0 9.3 7.3 73 2.3 W 11 15 6 8 1023.9 1023.9 0.0
04/01:00am 12.1 10.1 7.2 72 2.3 W 7 9 4 5 1023.9 1023.9 0.0
04/12:30am 11.9 9.9 7.2 73 2.3 W 7 11 4 6 1024.1 1024.1 0.0
04/12:00am 11.9 9.9 7.2 73 2.2 WNW 7 9 4 5 1024.2 1024.2 0.0
 
Date/Time
EST
Temp
°C
App
Temp
°C
Dew
Point
Rel
Hum
%
Delta-T
°C
Wind Press
QNH
hPa
Press
MSL
hPa
Rain
since 9 am
mm
Dir
 
Spd
km/h
Gust
km/h
Spd
kts
Gust
kts
03/11:30pm 12.1 9.7 7.0 71 2.4 W 9 11 5 6 1024.3 1024.3 0.0
03/11:00pm 12.1 9.8 7.4 73 2.3 W 9 13 5 7 1024.4 1024.4 0.0
03/10:30pm 11.9 9.5 7.2 73 2.3 W 9 11 5 6 1024.6 1024.6 0.0
03/10:00pm 12.3 9.6 7.4 72 2.4 WSW 11 13 6 7 1024.6 1024.6 0.0
03/09:30pm 12.3 9.3 7.6 73 2.3 W 13 17 7 9 1024.7 1024.7 0.0
03/09:00pm 12.3 8.9 7.6 73 2.3 W 15 24 8 13 1025.0 1025.0 0.0
03/08:30pm 12.4 9.4 7.7 73 2.3 W 13 17 7 9 1024.9 1024.9 0.0
03/08:00pm 12.4 9.4 7.7 73 2.3 W 13 15 7 8 1024.8 1024.8 0.0
03/07:30pm 12.2 9.5 7.5 73 2.3 W 11 15 6 8 1024.6 1024.6 0.0
03/07:00pm 12.3 10.1 8.0 75 2.1 WSW 9 13 5 7 1024.4 1024.4 0.0
03/06:30pm 12.0 10.1 7.7 75 2.1 W 7 11 4 6 1024.3 1024.3 0.0
03/06:00pm 12.2 9.6 7.9 75 2.1 W 11 15 6 8 1024.1 1024.1 0.0
03/05:30pm 12.3 9.4 8.0 75 2.1 WSW 13 17 7 9 1024.0 1024.0 0.0
03/05:00pm 12.7 10.2 8.2 74 2.2 W 11 17 6 9 1023.8 1023.8 0.0
03/04:30pm 13.6 10.0 8.2 70 2.7 WSW 17 20 9 11 1023.6 1023.6 0.0
03/04:00pm 14.6 10.4 8.3 66 3.1 SW 20 30 11 16 1023.7 1023.7 0.0
03/03:30pm 15.1 10.9 8.3 64 3.4 SW 20 28 11 15 1023.4 1023.4 0.0
03/03:00pm 14.9 11.3 8.4 65 3.3 SW 17 20 9 11 1023.1 1023.1 0.0
03/02:30pm 15.9 11.4 8.4 61 3.8 WSW 22 33 12 18 1023.0 1023.0 0.0
03/02:00pm 15.6 11.5 8.6 63 3.5 SW 20 32 11 17 1022.8 1022.8 0.0
03/01:30pm 15.6 9.9 8.4 62 3.6 SW 28 35 15 19 1022.8 1022.8 0.0
03/01:00pm 16.1 10.9 8.8 62 3.7 SW 26 37 14 20 1022.9 1022.9 0.0
03/12:30pm 16.5 12.3 8.2 58 4.2 SW 20 32 11 17 1023.1 1023.1 0.0
03/12:00pm 15.7 9.8 7.5 58 4.1 SW 28 37 15 20 1023.6 1023.6 0.0
03/11:30am 15.8 11.1 7.6 58 4.1 SW 22 30 12 16 1023.8 1023.8 0.0
03/11:00am 15.9 11.7 8.2 60 3.9 WSW 20 28 11 15 1024.1 1024.1 0.0
03/10:30am 15.2 10.4 7.5 60 3.8 WSW 22 28 12 15 1024.1 1024.1 0.0
03/10:00am 14.4 9.9 7.0 61 3.6 WSW 20 32 11 17 1024.3 1024.3 0.0
03/09:30am 13.8 9.5 6.9 63 3.3 WSW 19 28 10 15 1024.2 1024.2 0.0
03/09:00am 13.0 8.9 6.1 63 3.2 WSW 17 24 9 13 1024.3 1024.3 0.0
03/08:30am 12.0 7.8 5.6 65 3.0 WSW 17 24 9 13 1024.0 1024.0 0.0
03/08:00am 10.9 6.5 5.0 67 2.7 W 17 24 9 13 1023.6 1023.6 0.0
03/07:30am 10.3 6.6 4.5 67 2.6 W 13 19 7 10 1023.4 1023.4 0.0
03/07:00am 9.9 5.7 3.9 66 2.6 WSW 15 22 8 12 1023.0 1023.0 0.0
03/06:30am 9.9 5.3 3.6 65 2.7 W 17 20 9 11 1022.6 1022.6 0.0
03/06:00am 9.9 4.9 3.4 64 2.8 WSW 19 26 10 14 1022.1 1022.1 0.0
03/05:30am 9.9 4.6 3.2 63 2.9 WSW 20 28 11 15 1021.8 1021.8 0.0
03/05:00am 9.6 4.9 2.9 63 2.9 WSW 17 28 9 15 1021.6 1021.6 0.0
03/04:30am 9.6 4.4 2.5 61 3.0 WSW 19 26 10 14 1021.3 1021.3 0.0
03/04:00am 9.7 4.4 2.1 59 3.2 WSW 19 26 10 14 1021.3 1021.3 0.0
03/03:30am 9.8 4.5 1.9 58 3.3 WSW 19 26 10 14 1021.2 1021.2 0.0
03/03:00am 10.1 4.8 1.7 56 3.5 WSW 19 26 10 14 1021.2 1021.2 0.0
03/02:30am 10.1 5.1 1.5 55 3.6 WSW 17 26 9 14 1021.3 1021.3 0.0
03/02:00am 10.7 5.4 1.8 54 3.7 WSW 19 33 10 18 1021.5 1021.5 0.0
03/01:30am 10.7 5.8 2.3 56 3.6 WSW 17 33 9 18 1021.3 1021.3 0.0
03/01:00am 10.5 6.1 2.8 59 3.3 WSW 15 24 8 13 1021.5 1021.5 0.0
03/12:30am 9.8 6.2 2.9 62 3.0 SW 11 15 6 8 1021.5 1021.5 0.0
03/12:00am 11.1 6.4 3.4 59 3.4 WSW 17 24 9 13 1021.4 1021.4 0.0
 
Date/Time
EST
Temp
°C
App
Temp
°C
Dew
Point
Rel
Hum
%
Delta-T
°C
Wind Press
QNH
hPa
Press
MSL
hPa
Rain
since 9 am
mm
Dir
 
Spd
km/h
Gust
km/h
Spd
kts
Gust
kts
02/11:30pm 9.6 6.1 3.4 65 2.7 WSW 11 17 6 9 1021.4 1021.4 0.0
02/11:00pm 10.5 6.6 3.3 61 3.1 W 13 17 7 9 1021.3 1021.3 0.0

Other Formats:

Comma delimited format used in spreadsheet applications
http://www.bom.gov.au/fwo/IDN60801/IDN60801.94786.axf

JavaScript Object Notation format (JSON) in row-major order
http://www.bom.gov.au/fwo/IDN60801/IDN60801.94786.json